Time;durP1;ratioP1;P1;durP2;ratioP2;P2;SDS_P1;SDS_P2;PMS_P1;PMS_P2;Temp;Humidity;BMP_temperature;BMP_pressure;BME280_temperature;BME280_humidity;BME280_pressure;Samples;Min_cycle;Max_cycle;Signal;HPM_P1;HPM_P2
2021/10/29 00:02:00;;;;;;;13.57;9.57;;;4.60;99.90;;;;;;4999447;28;20056;-79
2021/10/29 00:04:26;;;;;;;13.93;9.93;;;4.50;99.90;;;;;;5013250;28;20038;-79
2021/10/29 00:06:52;;;;;;;13.20;9.52;;;4.40;99.90;;;;;;4999932;28;20030;-77
2021/10/29 00:09:17;;;;;;;12.75;9.88;;;4.40;99.90;;;;;;5015046;28;20026;-80
2021/10/29 00:11:43;;;;;;;15.80;10.43;;;4.40;99.90;;;;;;5000813;28;20035;-80
2021/10/29 00:14:09;;;;;;;12.52;9.80;;;4.50;99.90;;;;;;4999760;28;20027;-79
2021/10/29 00:16:34;;;;;;;12.93;9.35;;;4.50;99.90;;;;;;5016827;28;20161;-79
2021/10/29 00:19:00;;;;;;;12.57;9.38;;;4.40;99.90;;;;;;5001368;28;20069;-79
2021/10/29 00:21:26;;;;;;;13.65;9.88;;;4.40;99.90;;;;;;5001286;28;20033;-79
2021/10/29 00:23:52;;;;;;;11.15;8.43;;;4.50;99.90;;;;;;4998546;28;20057;-78
2021/10/29 00:26:18;;;;;;;14.20;9.95;;;4.50;99.90;;;;;;5013046;28;20026;-79
2021/10/29 00:28:43;;;;;;;13.27;9.45;;;4.40;99.90;;;;;;5002460;28;20034;-79
2021/10/29 00:31:09;;;;;;;13.82;8.60;;;4.40;99.90;;;;;;5020084;28;20027;-79
2021/10/29 00:33:35;;;;;;;13.40;9.63;;;4.40;99.90;;;;;;5002189;28;20022;-79
2021/10/29 00:36:01;;;;;;;14.40;10.10;;;4.40;99.90;;;;;;5018802;28;20038;-81
2021/10/29 00:38:28;;;;;;;14.45;9.82;;;4.30;99.90;;;;;;5018276;28;20032;-78
2021/10/29 00:40:54;;;;;;;15.32;10.90;;;4.30;99.90;;;;;;5010996;28;20026;-80
2021/10/29 00:43:20;;;;;;;14.90;11.05;;;4.30;99.90;;;;;;5000384;28;20114;-80
2021/10/29 00:45:47;;;;;;;14.60;11.25;;;4.30;99.90;;;;;;5002176;28;20027;-79
2021/10/29 00:48:13;;;;;;;13.68;10.23;;;4.30;99.90;;;;;;5002835;28;20037;-79
2021/10/29 00:50:40;;;;;;;14.55;11.02;;;4.30;99.90;;;;;;5010650;28;20026;-81
2021/10/29 00:53:06;;;;;;;13.00;9.70;;;4.30;99.90;;;;;;5016841;28;20040;-80
2021/10/29 00:55:32;;;;;;;12.15;9.20;;;4.40;99.90;;;;;;5017408;28;20014;-80
2021/10/29 00:57:58;;;;;;;13.05;9.63;;;4.40;99.90;;;;;;5015600;28;20030;-80
2021/10/29 01:00:24;;;;;;;12.55;9.48;;;4.50;99.90;;;;;;5017043;28;20061;-80
2021/10/29 01:02:50;;;;;;;15.52;10.05;;;4.40;99.90;;;;;;5018271;28;20038;-80
2021/10/29 01:05:16;;;;;;;13.40;9.85;;;4.30;99.90;;;;;;5017232;28;20026;-80
2021/10/29 01:07:42;;;;;;;11.98;10.13;;;4.30;99.90;;;;;;5033336;28;20038;-80
2021/10/29 01:10:08;;;;;;;11.30;9.10;;;4.30;99.90;;;;;;5016874;28;20030;-80
2021/10/29 01:12:34;;;;;;;12.45;9.40;;;4.20;99.90;;;;;;5015720;28;20030;-80
2021/10/29 01:15:02;;;;;;;12.82;8.75;;;4.10;99.90;;;;;;5009582;28;20144;-79
2021/10/29 01:17:28;;;;;;;11.52;8.45;;;4.20;99.90;;;;;;5000034;28;20019;-80
2021/10/29 01:19:56;;;;;;;12.05;9.70;;;4.10;99.90;;;;;;5000582;28;20041;-80
2021/10/29 01:22:23;;;;;;;11.82;8.73;;;4.10;99.90;;;;;;5000359;28;20117;-80
2021/10/29 01:24:50;;;;;;;9.23;7.95;;;4.10;99.90;;;;;;5000144;28;20029;-80
2021/10/29 01:27:16;;;;;;;12.55;9.02;;;4.10;99.90;;;;;;5000005;28;20022;-79
2021/10/29 01:29:44;;;;;;;12.38;8.60;;;4.10;99.90;;;;;;5000924;28;20029;-79
2021/10/29 01:32:11;;;;;;;13.00;9.00;;;4.10;99.90;;;;;;5000659;28;20026;-79
2021/10/29 01:34:39;;;;;;;14.32;9.95;;;4.10;99.90;;;;;;4999212;28;20025;-79
2021/10/29 01:37:06;;;;;;;11.60;8.73;;;4.10;99.90;;;;;;4999495;28;20030;-78
2021/10/29 01:39:32;;;;;;;11.63;8.77;;;4.10;99.90;;;;;;5000624;28;20094;-80
2021/10/29 01:41:58;;;;;;;12.63;10.07;;;4.10;99.90;;;;;;5022985;28;20034;-80
2021/10/29 01:44:24;;;;;;;12.45;9.85;;;4.10;99.90;;;;;;5005209;28;20042;-79
2021/10/29 01:46:50;;;;;;;13.68;9.80;;;4.10;99.90;;;;;;5023380;28;20038;-80
2021/10/29 01:49:17;;;;;;;12.57;9.20;;;4.10;99.90;;;;;;5010346;28;20030;-80
2021/10/29 01:51:43;;;;;;;12.65;9.02;;;4.10;99.90;;;;;;5010502;28;20023;-81
2021/10/29 01:54:09;;;;;;;14.93;10.63;;;4.10;99.90;;;;;;5012232;28;20072;-78
2021/10/29 01:56:34;;;;;;;11.98;10.18;;;4.00;99.90;;;;;;5010040;28;20078;-79
2021/10/29 01:59:00;;;;;;;14.13;10.35;;;4.00;99.90;;;;;;5015851;28;20067;-79
2021/10/29 02:01:26;;;;;;;14.23;11.23;;;4.00;99.90;;;;;;5017736;28;20031;-80
2021/10/29 02:03:52;;;;;;;15.80;10.85;;;3.90;99.90;;;;;;5015790;28;20174;-79
2021/10/29 02:06:18;;;;;;;15.52;10.63;;;3.90;99.90;;;;;;5016118;28;20036;-80
2021/10/29 02:08:46;;;;;;;14.02;10.45;;;3.90;99.90;;;;;;5016565;28;20018;-80
2021/10/29 02:11:12;;;;;;;13.63;10.00;;;3.90;99.90;;;;;;5016549;28;20077;-79
2021/10/29 02:13:38;;;;;;;13.60;10.10;;;3.90;99.90;;;;;;5017321;28;20081;-81
2021/10/29 02:16:04;;;;;;;13.75;10.40;;;3.80;99.90;;;;;;5015191;28;20018;-79
2021/10/29 02:18:30;;;;;;;11.80;9.02;;;3.80;99.90;;;;;;5014241;28;20034;-79
2021/10/29 02:20:56;;;;;;;13.18;9.60;;;3.80;99.90;;;;;;5014537;28;20042;-79
2021/10/29 02:23:22;;;;;;;12.30;9.30;;;3.80;99.90;;;;;;5007555;28;20062;-79
2021/10/29 02:25:48;;;;;;;13.90;9.88;;;3.70;99.90;;;;;;5010789;28;20026;-79
2021/10/29 02:28:16;;;;;;;13.25;9.23;;;3.70;99.90;;;;;;5012736;28;20329;-80
2021/10/29 02:30:43;;;;;;;13.23;8.32;;;3.70;99.90;;;;;;5027880;28;20030;-79
2021/10/29 02:33:10;;;;;;;12.70;9.57;;;3.60;99.90;;;;;;5024952;28;20022;-79
2021/10/29 02:35:35;;;;;;;12.18;9.25;;;3.70;99.90;;;;;;5005810;28;20033;-79
2021/10/29 02:38:02;;;;;;;11.13;8.77;;;3.70;99.90;;;;;;4999429;28;20022;-79
2021/10/29 02:40:28;;;;;;;9.50;7.68;;;3.70;99.90;;;;;;4999493;28;20065;-80
2021/10/29 02:42:54;;;;;;;9.70;7.55;;;3.70;99.90;;;;;;4998517;28;20039;-80
2021/10/29 02:45:19;;;;;;;13.73;7.90;;;3.70;99.90;;;;;;4999214;28;20022;-79
2021/10/29 02:47:48;;;;;;;11.13;9.10;;;3.70;99.90;;;;;;4996756;28;20368;-78
2021/10/29 02:50:18;;;;;;;11.07;8.25;;;3.70;99.90;;;;;;4996053;28;20057;-80
2021/10/29 02:52:45;;;;;;;10.13;8.25;;;3.70;99.90;;;;;;5000253;28;20038;-79
2021/10/29 02:55:12;;;;;;;10.57;8.05;;;3.70;99.90;;;;;;4997993;28;20519;-81
2021/10/29 02:57:37;;;;;;;9.10;7.28;;;3.70;99.90;;;;;;4996281;28;20105;-79
2021/10/29 03:00:07;;;;;;;9.15;7.68;;;3.70;99.90;;;;;;4997121;28;20058;-80
2021/10/29 03:02:33;;;;;;;9.32;7.82;;;3.70;99.90;;;;;;4997302;28;20498;-80
2021/10/29 03:05:00;;;;;;;8.90;7.80;;;3.60;99.90;;;;;;4998532;28;20109;-80
2021/10/29 03:07:26;;;;;;;10.85;8.10;;;3.60;99.90;;;;;;4997194;28;20421;-80
2021/10/29 03:09:52;;;;;;;9.18;7.55;;;3.50;99.90;;;;;;5011914;28;20029;-79
2021/10/29 03:12:18;;;;;;;8.38;6.88;;;3.40;99.90;;;;;;5011262;28;20049;-79
2021/10/29 03:14:44;;;;;;;7.22;6.40;;;3.40;99.90;;;;;;4997318;28;20019;-79
2021/10/29 03:17:10;;;;;;;8.32;6.22;;;3.30;99.90;;;;;;4997289;28;20027;-79
2021/10/29 03:19:36;;;;;;;6.90;6.13;;;3.40;99.90;;;;;;4995843;28;20122;-79
2021/10/29 03:22:02;;;;;;;7.40;5.93;;;3.30;99.90;;;;;;4995406;28;20026;-79
2021/10/29 03:24:28;;;;;;;7.45;5.90;;;3.30;99.90;;;;;;4996070;28;20036;-79
2021/10/29 03:26:54;;;;;;;7.93;6.35;;;3.20;99.90;;;;;;4996599;28;20482;-78
2021/10/29 03:29:20;;;;;;;6.40;5.45;;;3.10;99.90;;;;;;4993885;28;20034;-78
2021/10/29 03:31:46;;;;;;;6.75;5.72;;;3.10;99.90;;;;;;4995821;28;20033;-79
2021/10/29 03:34:11;;;;;;;8.80;6.63;;;3.00;99.90;;;;;;4996318;28;20023;-77
2021/10/29 03:36:38;;;;;;;8.25;5.85;;;3.00;99.90;;;;;;4996645;28;20464;-80
2021/10/29 03:39:07;;;;;;;8.13;6.50;;;3.00;99.90;;;;;;4995532;28;20014;-78
2021/10/29 03:41:37;;;;;;;8.10;6.90;;;3.00;99.90;;;;;;4995209;28;20026;-79
2021/10/29 03:46:42;;;;;;;9.13;6.93;;;2.90;99.90;;;;;;4996700;28;20053;-79
2021/10/29 03:51:40;;;;;;;8.50;6.95;;;2.80;99.90;;;;;;4998168;28;20054;-79
2021/10/29 03:54:15;;;;;;;8.95;6.60;;;2.80;99.90;;;;;;4998787;28;20027;-79
2021/10/29 03:56:42;;;;;;;9.13;6.85;;;2.80;99.90;;;;;;4997178;28;20080;-79
2021/10/29 03:59:12;;;;;;;8.02;6.50;;;2.80;99.90;;;;;;4996541;28;20021;-78
2021/10/29 04:01:39;;;;;;;9.15;6.68;;;2.80;99.90;;;;;;4996201;28;20050;-78
2021/10/29 04:04:05;;;;;;;9.27;7.22;;;2.80;99.90;;;;;;4994645;28;20430;-79
2021/10/29 04:06:31;;;;;;;9.05;6.63;;;2.80;99.90;;;;;;4993699;28;20045;-77
2021/10/29 04:08:56;;;;;;;8.23;6.60;;;2.90;99.90;;;;;;4995255;28;20038;-78
2021/10/29 04:11:24;;;;;;;9.25;6.40;;;2.90;99.90;;;;;;4992819;28;20046;-80
2021/10/29 04:13:50;;;;;;;10.93;6.80;;;2.80;99.90;;;;;;4996018;28;20022;-80
2021/10/29 04:16:17;;;;;;;7.30;6.40;;;2.90;99.90;;;;;;4992815;28;20168;-79
2021/10/29 04:18:43;;;;;;;9.35;7.32;;;2.80;99.90;;;;;;5002013;28;20023;-78
2021/10/29 04:21:09;;;;;;;8.73;6.65;;;2.80;99.90;;;;;;4997206;28;20128;-79
2021/10/29 04:23:34;;;;;;;11.02;7.07;;;2.80;99.90;;;;;;4993697;28;20035;-78
2021/10/29 04:26:00;;;;;;;8.73;6.53;;;2.80;99.90;;;;;;4994402;28;20534;-79
2021/10/29 04:28:27;;;;;;;7.60;6.15;;;2.80;99.90;;;;;;4992113;28;20026;-79
2021/10/29 04:30:54;;;;;;;8.15;6.50;;;2.90;99.90;;;;;;4994907;28;20100;-78
2021/10/29 04:33:20;;;;;;;8.35;6.57;;;2.90;99.90;;;;;;4992600;28;20029;-78
2021/10/29 04:35:49;;;;;;;8.70;7.05;;;2.90;99.90;;;;;;4992839;28;20101;-80
2021/10/29 04:38:15;;;;;;;8.70;5.85;;;2.80;99.90;;;;;;4994023;28;20023;-78
2021/10/29 04:40:42;;;;;;;7.63;6.18;;;2.90;99.90;;;;;;5009441;28;20022;-79
2021/10/29 04:43:09;;;;;;;8.15;5.93;;;2.80;99.90;;;;;;4995298;28;20487;-79
2021/10/29 04:45:35;;;;;;;8.20;6.43;;;2.80;99.90;;;;;;4997790;28;20030;-80
2021/10/29 04:48:03;;;;;;;7.38;5.50;;;2.80;99.90;;;;;;4999345;28;20054;-79
2021/10/29 04:50:29;;;;;;;8.68;7.35;;;2.90;99.90;;;;;;5000416;28;20364;-81
2021/10/29 04:52:56;;;;;;;7.72;6.07;;;2.80;99.90;;;;;;5010057;28;20022;-79
2021/10/29 04:55:22;;;;;;;7.32;5.63;;;2.90;99.90;;;;;;5010198;28;20033;-81
2021/10/29 04:57:48;;;;;;;10.05;6.90;;;2.90;99.90;;;;;;5013323;28;20121;-76
2021/10/29 05:00:14;;;;;;;9.75;7.55;;;2.90;99.90;;;;;;5016848;28;20014;-79
2021/10/29 05:02:40;;;;;;;8.25;7.00;;;2.90;99.90;;;;;;5011479;28;20106;-80
2021/10/29 05:05:08;;;;;;;9.85;7.00;;;2.90;99.90;;;;;;5008914;28;20498;-79
2021/10/29 05:07:35;;;;;;;7.50;5.93;;;2.90;99.90;;;;;;5006737;28;20391;-78
2021/10/29 05:10:01;;;;;;;6.60;5.90;;;2.90;99.90;;;;;;5004682;28;20019;-79
2021/10/29 05:12:26;;;;;;;7.63;5.80;;;2.90;99.90;;;;;;5013158;28;20014;-79
2021/10/29 05:14:53;;;;;;;7.60;6.20;;;2.90;99.90;;;;;;5016559;28;20061;-78
2021/10/29 05:17:19;;;;;;;7.05;5.47;;;2.90;99.90;;;;;;5013826;28;20073;-80
2021/10/29 05:19:45;;;;;;;6.82;5.15;;;3.00;99.90;;;;;;5007003;28;20387;-78
2021/10/29 05:22:11;;;;;;;9.38;7.00;;;3.10;99.90;;;;;;5018325;28;20041;-79
2021/10/29 05:24:37;;;;;;;8.48;6.63;;;3.00;99.90;;;;;;5000776;28;20474;-77
2021/10/29 05:27:03;;;;;;;9.05;6.80;;;3.00;99.90;;;;;;5002198;28;20037;-79
2021/10/29 05:29:29;;;;;;;8.85;7.18;;;2.90;99.90;;;;;;5003381;28;20030;-79
2021/10/29 05:31:58;;;;;;;9.13;6.93;;;2.90;99.90;;;;;;5004269;28;20148;-80
2021/10/29 05:34:23;;;;;;;8.35;6.95;;;2.80;99.90;;;;;;5002975;28;20010;-78
2021/10/29 05:36:49;;;;;;;7.65;6.13;;;2.80;99.90;;;;;;5021214;28;20097;-77
2021/10/29 05:39:15;;;;;;;10.57;7.28;;;2.80;99.90;;;;;;5005080;28;20411;-78
2021/10/29 05:41:47;;;;;;;8.45;6.68;;;2.90;99.90;;;;;;5004569;28;20109;-78
2021/10/29 05:44:17;;;;;;;7.88;6.65;;;2.90;99.90;;;;;;5008087;28;20034;-80
2021/10/29 05:46:43;;;;;;;7.10;5.70;;;2.80;99.90;;;;;;5005374;28;20035;-79
2021/10/29 05:49:12;;;;;;;9.02;6.35;;;2.80;99.90;;;;;;5005585;28;20073;-81
2021/10/29 05:51:44;;;;;;;9.15;6.18;;;2.80;99.90;;;;;;5006085;28;20137;-81
2021/10/29 05:54:37;;;;;;;9.07;7.25;;;2.80;99.90;;;;;;5019943;28;20114;-80
2021/10/29 05:56:57;;;;;;;9.25;6.60;;;2.80;99.90;;;;;;5006176;28;20034;-79
2021/10/29 05:59:24;;;;;;;9.02;6.80;;;2.80;99.90;;;;;;5005464;28;20026;-79
2021/10/29 06:01:49;;;;;;;8.80;7.00;;;2.70;99.90;;;;;;5007050;28;20090;-79
2021/10/29 06:04:15;;;;;;;10.05;7.35;;;2.80;99.90;;;;;;5008179;28;20026;-79
2021/10/29 06:06:41;;;;;;;7.72;6.35;;;2.80;99.90;;;;;;5010059;28;20026;-79
2021/10/29 06:09:08;;;;;;;9.68;6.97;;;2.90;99.90;;;;;;5010116;28;20026;-80
2021/10/29 06:11:34;;;;;;;8.77;6.20;;;3.10;99.90;;;;;;5011646;28;20093;-79
2021/10/29 06:14:00;;;;;;;7.03;5.82;;;3.20;99.90;;;;;;5010712;28;20034;-79
2021/10/29 06:16:25;;;;;;;6.90;5.88;;;3.40;99.90;;;;;;5011629;28;20010;-78
2021/10/29 06:18:52;;;;;;;6.57;5.85;;;3.50;99.90;;;;;;5011115;28;20019;-80
2021/10/29 06:21:20;;;;;;;7.15;5.40;;;3.60;99.90;;;;;;5008900;28;20030;-78
2021/10/29 06:24:09;;;;;;;5.70;4.97;;;3.70;99.90;;;;;;5008355;28;20030;-77
2021/10/29 06:27:11;;;;;;;8.10;6.35;;;3.80;99.90;;;;;;5008417;28;20088;-79
2021/10/29 06:29:26;;;;;;;7.17;6.23;;;3.70;99.90;;;;;;5007679;28;20057;-80
2021/10/29 06:31:52;;;;;;;7.85;6.50;;;3.70;99.90;;;;;;5008472;28;20019;-80
2021/10/29 06:34:18;;;;;;;8.85;7.35;;;3.70;99.90;;;;;;5008054;28;20491;-82
2021/10/29 06:36:45;;;;;;;11.93;7.95;;;3.80;99.90;;;;;;5007610;28;20575;-78
2021/10/29 06:39:11;;;;;;;9.80;7.78;;;3.80;99.90;;;;;;5005521;28;20030;-78
2021/10/29 06:41:37;;;;;;;12.70;8.15;;;3.90;99.90;;;;;;5020202;28;20034;-79
2021/10/29 07:40:47;;;;;;;8.38;6.25;;;5.10;99.90;;;;;;4990065;28;20037;-80
2021/10/29 07:43:22;;;;;;;10.85;7.30;;;5.30;99.90;;;;;;4989036;28;20082;-79
2021/10/29 07:45:48;;;;;;;8.52;6.40;;;5.50;99.90;;;;;;4992274;28;20037;-80
2021/10/29 07:48:14;;;;;;;10.55;7.43;;;5.70;99.90;;;;;;4995087;28;20030;-79
2021/10/29 07:50:40;;;;;;;9.68;6.82;;;5.60;99.90;;;;;;5005870;28;20033;-78
2021/10/29 07:53:05;;;;;;;9.57;7.03;;;5.50;99.90;;;;;;5006265;28;20030;-81
2021/10/29 07:55:31;;;;;;;12.23;7.00;;;5.50;99.90;;;;;;5021964;28;20105;-80
2021/10/29 07:58:04;;;;;;;11.65;7.72;;;5.50;99.90;;;;;;5020989;28;20030;-81
2021/10/29 08:00:33;;;;;;;8.25;7.05;;;5.50;99.90;;;;;;5008804;28;20038;-81
2021/10/29 08:03:02;;;;;;;9.95;7.90;;;5.50;99.90;;;;;;5009510;28;20061;-79
2021/10/29 08:05:29;;;;;;;10.35;7.82;;;5.60;99.90;;;;;;5010678;28;20049;-80
2021/10/29 08:07:55;;;;;;;9.70;7.68;;;5.70;99.90;;;;;;5011411;28;20067;-79
2021/10/29 08:10:21;;;;;;;12.55;8.52;;;5.80;99.90;;;;;;5009239;28;20045;-80
2021/10/29 08:12:50;;;;;;;13.20;8.57;;;5.80;99.90;;;;;;5009069;28;20113;-81
2021/10/29 08:15:16;;;;;;;10.43;7.60;;;5.70;99.90;;;;;;5006357;28;20023;-78
2021/10/29 08:17:42;;;;;;;11.82;7.90;;;5.60;99.90;;;;;;5024658;28;20102;-79
2021/10/29 08:20:11;;;;;;;10.18;7.75;;;5.60;99.90;;;;;;5008490;28;20091;-81
2021/10/29 08:22:38;;;;;;;13.75;8.70;;;5.60;99.90;;;;;;5008359;28;20029;-80
2021/10/29 08:25:05;;;;;;;12.57;8.45;;;5.70;99.90;;;;;;5009774;28;20022;-79
2021/10/29 08:27:31;;;;;;;12.02;8.38;;;5.70;99.90;;;;;;5011311;28;20027;-79
2021/10/29 08:29:57;;;;;;;12.68;8.77;;;5.80;99.90;;;;;;5027044;28;20053;-80
2021/10/29 08:32:23;;;;;;;10.15;7.68;;;5.80;99.90;;;;;;5012854;28;20058;-79
2021/10/29 08:34:49;;;;;;;10.23;7.38;;;5.90;99.90;;;;;;5012416;28;20026;-80
2021/10/29 08:37:15;;;;;;;10.40;7.45;;;5.90;99.90;;;;;;5011923;28;20027;-79
2021/10/29 08:39:41;;;;;;;11.43;7.82;;;6.10;99.90;;;;;;5010063;28;20018;-80
2021/10/29 08:42:09;;;;;;;10.18;7.45;;;6.20;99.90;;;;;;5011547;28;20042;-79
2021/10/29 08:44:36;;;;;;;11.77;8.35;;;6.30;99.90;;;;;;5015989;28;20018;-80
2021/10/29 08:47:04;;;;;;;11.40;8.27;;;6.30;99.90;;;;;;5017372;28;20025;-80
2021/10/29 08:49:34;;;;;;;9.23;7.43;;;6.30;99.90;;;;;;5018198;28;20034;-78
2021/10/29 08:52:01;;;;;;;10.48;7.85;;;6.30;99.90;;;;;;5017993;28;20053;-79
2021/10/29 08:54:29;;;;;;;14.13;9.00;;;6.40;99.90;;;;;;5017621;28;20027;-79
2021/10/29 08:56:56;;;;;;;14.60;8.75;;;6.60;99.90;;;;;;5031857;28;20030;-79
2021/10/29 08:59:34;;;;;;;13.88;9.10;;;6.70;99.90;;;;;;5016509;28;20019;-78
2021/10/29 09:02:28;;;;;;;11.32;9.02;;;6.70;99.90;;;;;;5016636;28;20037;-80
2021/10/29 09:05:21;;;;;;;10.23;7.30;;;6.60;99.90;;;;;;5015921;28;20025;-81
2021/10/29 09:08:03;;;;;;;12.02;8.32;;;6.70;99.90;;;;;;5013149;28;20242;-80
2021/10/29 09:32:41;;;;;;;9.98;6.47;;;9.70;93.80;;;;;;5010782;28;20088;-81
2021/10/29 09:35:09;;;;;;;9.50;7.03;;;9.80;93.40;;;;;;5007989;28;20451;-80
2021/10/29 09:38:00;;;;;;;7.85;6.40;;;9.90;92.50;;;;;;5007806;28;20065;-78
2021/10/29 09:40:29;;;;;;;10.52;6.05;;;10.00;92.40;;;;;;5019668;28;20109;-79
2021/10/29 09:43:12;;;;;;;8.82;6.07;;;10.00;91.90;;;;;;4995373;28;20102;-79
2021/10/29 09:45:46;;;;;;;8.25;5.68;;;10.00;91.60;;;;;;4997044;28;20168;-79
2021/10/29 09:48:36;;;;;;;8.13;5.47;;;10.00;91.50;;;;;;5005366;28;20081;-79
2021/10/29 09:51:13;;;;;;;6.22;5.22;;;10.00;91.40;;;;;;4988848;28;20061;-78
2021/10/29 09:54:44;;;;;;;7.78;6.15;;;10.10;90.90;;;;;;5002148;28;20029;-79
2021/10/29 09:56:54;;;;;;;10.85;7.63;;;9.90;90.80;;;;;;4993808;28;20050;-79
2021/10/29 09:59:20;;;;;;;11.57;7.30;;;9.70;90.70;;;;;;5004474;28;20038;-78
2021/10/29 10:01:46;;;;;;;8.52;7.10;;;9.70;91.20;;;;;;5009835;28;20037;-79
2021/10/29 10:04:12;;;;;;;8.52;6.53;;;9.90;91.30;;;;;;5010438;28;20022;-81
2021/10/29 10:06:40;;;;;;;9.27;7.00;;;10.10;90.70;;;;;;5011146;28;20022;-79
2021/10/29 10:09:10;;;;;;;9.27;6.63;;;10.00;90.50;;;;;;5012193;28;20038;-79
2021/10/29 10:11:40;;;;;;;8.23;7.15;;;10.00;90.60;;;;;;5026637;28;20053;-80
2021/10/29 10:14:09;;;;;;;9.48;7.55;;;9.90;90.40;;;;;;5013272;28;20023;-80
2021/10/29 10:16:36;;;;;;;7.95;6.13;;;9.70;90.50;;;;;;5009098;28;20018;-79
2021/10/29 10:19:02;;;;;;;9.10;6.38;;;9.80;91.20;;;;;;5000214;28;20363;-78
2021/10/29 10:21:33;;;;;;;7.88;6.30;;;10.00;90.80;;;;;;5001267;28;20030;-79
2021/10/29 10:24:01;;;;;;;8.32;6.78;;;10.20;90.50;;;;;;5004069;28;20038;-80
2021/10/29 10:43:57;;;;;;;8.80;6.72;;;10.70;85.90;;;;;;4990852;28;20113;-80
2021/10/29 10:46:19;;;;;;;10.55;7.57;;;10.50;86.50;;;;;;5002931;28;20049;-81
2021/10/29 10:49:11;;;;;;;8.38;6.60;;;10.50;86.90;;;;;;5002412;28;20118;-80
2021/10/29 10:51:46;;;;;;;11.80;7.25;;;10.60;86.80;;;;;;5018522;28;20042;-81
2021/10/29 10:54:36;;;;;;;12.05;8.25;;;10.60;86.60;;;;;;5019435;28;20049;-79
2021/10/29 10:59:54;;;;;;;7.90;5.60;;;10.90;86.10;;;;;;5013661;28;20018;-79
2021/10/29 11:03:08;;;;;;;8.82;6.75;;;11.00;85.40;;;;;;5007231;28;20030;-81
2021/10/29 11:10:58;;;;;;;8.70;7.25;;;11.10;83.00;;;;;;5008549;28;20108;-80
2021/10/29 11:13:26;;;;;;;11.75;7.32;;;11.00;83.80;;;;;;5004944;28;20109;-80
2021/10/29 11:16:03;;;;;;;9.55;7.15;;;11.00;84.10;;;;;;5006008;28;20015;-80
2021/10/29 11:18:34;;;;;;;9.88;7.57;;;10.90;83.70;;;;;;5008155;28;20451;-79
2021/10/29 11:21:20;;;;;;;11.40;7.63;;;10.90;84.20;;;;;;5000259;28;20027;-80
2021/10/29 11:23:53;;;;;;;8.35;6.88;;;11.00;84.30;;;;;;5004390;28;20045;-79
2021/10/29 11:26:36;;;;;;;11.15;7.13;;;11.10;83.50;;;;;;5003582;28;20042;-79
2021/10/29 11:29:04;;;;;;;7.45;6.25;;;11.20;82.60;;;;;;5017568;28;20031;-80
2021/10/29 11:31:33;;;;;;;6.90;6.13;;;11.00;83.00;;;;;;5003441;28;20042;-79
2021/10/29 11:34:06;;;;;;;8.80;6.85;;;10.70;84.40;;;;;;5002576;28;20022;-80
2021/10/29 11:36:35;;;;;;;8.23;6.93;;;10.50;85.10;;;;;;5003789;28;20032;-79
2021/10/29 11:39:04;;;;;;;8.95;6.60;;;10.60;85.60;;;;;;5004820;28;20081;-81
2021/10/29 11:41:32;;;;;;;9.73;7.45;;;10.90;84.20;;;;;;5002539;28;20262;-80
2021/10/29 11:44:04;;;;;;;7.72;6.25;;;11.00;83.60;;;;;;5004636;28;20026;-79
2021/10/29 11:46:31;;;;;;;;;;;10.90;83.50;;;;;;5002108;28;20034;-80
2021/10/29 11:49:03;;;;;;;9.52;6.68;;;10.80;84.50;;;;;;5019031;28;19909;-80
2021/10/29 11:51:30;;;;;;;9.70;7.78;;;10.70;84.90;;;;;;5001947;28;20050;-80
2021/10/29 11:54:06;;;;;;;12.45;7.45;;;10.60;84.60;;;;;;5003382;28;20027;-80
2021/10/29 11:56:35;;;;;;;9.05;6.78;;;10.40;86.20;;;;;;5018130;28;20049;-79
2021/10/29 11:59:22;;;;;;;9.70;6.70;;;10.40;87.50;;;;;;5002245;28;20037;-81
2021/10/29 12:02:01;;;;;;;7.13;6.38;;;10.50;87.40;;;;;;5021579;28;20056;-81
2021/10/29 12:07:19;;;;;;;9.32;6.53;;;11.30;86.00;;;;;;5009061;28;20061;-79
2021/10/29 12:10:11;;;;;;;6.40;5.45;;;11.90;82.10;;;;;;5012585;28;20093;-81
2021/10/29 12:12:40;;;;;;;7.17;5.90;;;12.10;80.80;;;;;;5009452;28;20062;-81
2021/10/29 12:15:26;;;;;;;6.60;5.00;;;12.20;80.40;;;;;;5008176;28;20026;-80
2021/10/29 12:18:07;;;;;;;8.52;6.38;;;12.40;79.60;;;;;;5014136;28;20050;-80
2021/10/29 12:20:41;;;;;;;11.45;7.93;;;12.50;76.70;;;;;;5013790;28;20045;-79
2021/10/29 12:23:15;;;;;;;10.80;7.07;;;12.20;76.40;;;;;;5011639;28;20018;-80
2021/10/29 12:31:53;;;;;;;9.93;7.13;;;11.20;81.20;;;;;;5008948;28;20037;-81
2021/10/29 13:04:01;;;;;;;10.55;8.60;;;11.80;80.90;;;;;;5008970;28;20040;-80
2021/10/29 13:06:35;;;;;;;12.48;9.45;;;11.80;80.40;;;;;;5006789;28;20034;-81
2021/10/29 13:09:21;;;;;;;9.35;8.13;;;11.80;80.40;;;;;;5004983;28;20031;-80
2021/10/29 13:14:40;;;;;;;9.70;8.50;;;11.60;82.20;;;;;;5004353;28;20026;-80
2021/10/29 13:17:11;;;;;;;12.70;10.05;;;11.70;81.70;;;;;;5004954;28;20363;-79
2021/10/29 13:20:14;;;;;;;10.38;8.93;;;11.70;81.60;;;;;;5007848;28;20018;-80
2021/10/29 13:23:17;;;;;;;12.10;8.93;;;11.60;82.10;;;;;;5007819;28;20026;-78
2021/10/29 13:53:04;;;;;;;14.90;10.38;;;11.50;82.80;;;;;;5004067;28;20032;-79
2021/10/29 13:58:42;;;;;;;15.35;11.25;;;11.40;83.80;;;;;;5006244;28;20472;-77
2021/10/29 14:24:23;;;;;;;14.82;11.07;;;10.40;88.40;;;;;;5000604;28;20039;-77
2021/10/29 14:30:39;;;;;;;15.38;12.38;;;9.50;92.30;;;;;;5001376;28;20092;-78
2021/10/29 14:40:27;;;;;;;14.90;12.40;;;9.10;93.80;;;;;;5002143;28;20030;-78
2021/10/29 14:43:19;;;;;;;16.20;12.15;;;9.00;94.20;;;;;;5002222;28;20121;-78
2021/10/29 15:25:58;;;;;;;17.17;13.50;;;8.00;99.90;;;;;;5006559;28;20117;-77
2021/10/29 15:44:44;;;;;;;18.33;13.90;;;7.50;99.90;;;;;;5004567;28;20364;-80
2021/10/29 15:47:17;;;;;;;19.98;14.23;;;7.50;99.90;;;;;;5005289;28;20096;-79
2021/10/29 15:49:45;;;;;;;22.38;15.88;;;7.40;99.90;;;;;;5007505;28;20288;-78
2021/10/29 15:52:14;;;;;;;18.20;13.77;;;7.30;99.90;;;;;;5028132;28;20045;-80
2021/10/29 15:54:50;;;;;;;21.73;15.80;;;7.20;99.90;;;;;;5004688;28;20050;-79
2021/10/29 15:57:24;;;;;;;23.15;16.77;;;7.10;99.90;;;;;;4982837;28;20110;-81
2021/10/29 16:00:00;;;;;;;18.52;14.05;;;7.00;99.90;;;;;;4981723;28;20023;-81
2021/10/29 16:03:07;;;;;;;21.40;15.48;;;6.90;99.90;;;;;;4981707;28;20360;-81
2021/10/29 16:18:59;;;;;;;18.95;14.10;;;6.50;99.90;;;;;;5000472;28;20073;-82
2021/10/29 16:21:25;;;;;;;21.10;13.93;;;6.40;99.90;;;;;;4998950;28;20026;-80
2021/10/29 16:23:50;;;;;;;19.25;13.88;;;6.40;99.90;;;;;;4997204;28;20058;-81
2021/10/29 16:26:19;;;;;;;19.02;13.70;;;6.40;99.90;;;;;;4998448;28;20022;-81
2021/10/29 16:28:47;;;;;;;20.67;14.27;;;6.40;99.90;;;;;;4998717;28;20081;-80
2021/10/29 16:31:14;;;;;;;24.48;17.15;;;6.30;99.90;;;;;;4997093;28;20037;-83
2021/10/29 16:33:39;;;;;;;25.17;17.58;;;6.30;99.90;;;;;;5012787;28;20037;-83
2021/10/29 16:36:05;;;;;;;24.80;18.33;;;6.30;99.90;;;;;;4997221;28;20027;-82
2021/10/29 16:38:32;;;;;;;24.50;17.02;;;6.20;99.90;;;;;;4997717;28;20058;-79
2021/10/29 16:40:59;;;;;;;24.42;16.80;;;6.20;99.90;;;;;;4998401;28;20533;-82
2021/10/29 16:43:26;;;;;;;24.50;17.58;;;6.10;99.90;;;;;;4998044;28;20035;-81
2021/10/29 16:45:53;;;;;;;27.65;17.38;;;6.10;99.90;;;;;;5004982;28;20061;-79
2021/10/29 16:48:22;;;;;;;25.73;16.95;;;6.00;99.90;;;;;;5007454;28;20399;-80
2021/10/29 16:50:48;;;;;;;26.05;17.70;;;6.00;99.90;;;;;;4998781;28;20033;-81
2021/10/29 16:53:15;;;;;;;24.80;16.70;;;6.00;99.90;;;;;;5000262;28;20023;-78
2021/10/29 16:55:42;;;;;;;24.23;17.83;;;6.00;99.90;;;;;;5000979;28;20034;-79
2021/10/29 16:58:12;;;;;;;26.15;17.15;;;5.90;99.90;;;;;;4999883;28;20029;-78
2021/10/29 17:00:39;;;;;;;22.67;16.20;;;5.90;99.90;;;;;;5002325;28;20034;-81
2021/10/29 17:03:04;;;;;;;25.13;17.42;;;5.80;99.90;;;;;;5002000;28;20511;-80
2021/10/29 17:05:30;;;;;;;27.17;17.38;;;5.80;99.90;;;;;;5003208;28;20023;-79
2021/10/29 17:07:56;;;;;;;29.02;18.77;;;5.80;99.90;;;;;;5003467;28;20082;-79
2021/10/29 17:10:23;;;;;;;26.13;17.65;;;5.80;99.90;;;;;;5016264;28;20495;-78
2021/10/29 17:12:49;;;;;;;26.50;18.35;;;5.80;99.90;;;;;;5000851;28;20038;-80
2021/10/29 17:15:16;;;;;;;27.25;19.17;;;5.80;99.90;;;;;;5001801;28;20094;-80
2021/10/29 17:17:44;;;;;;;28.98;18.90;;;5.80;99.90;;;;;;5000947;28;20045;-78
2021/10/29 17:20:12;;;;;;;30.95;20.38;;;5.70;99.90;;;;;;5000092;28;20034;-79
2021/10/29 17:22:42;;;;;;;29.20;19.40;;;5.70;99.90;;;;;;4999477;28;20030;-79
2021/10/29 17:25:09;;;;;;;32.78;21.20;;;5.70;99.90;;;;;;5001188;28;20022;-80
2021/10/29 17:27:35;;;;;;;27.85;19.42;;;5.70;99.90;;;;;;5001247;28;20034;-81
2021/10/29 17:30:02;;;;;;;28.50;19.02;;;5.70;99.90;;;;;;5000466;28;20034;-79
2021/10/29 17:32:28;;;;;;;31.85;19.63;;;5.80;99.90;;;;;;4997351;28;20073;-80
2021/10/29 17:34:54;;;;;;;26.58;17.77;;;5.80;99.90;;;;;;4998460;28;20019;-80
2021/10/29 17:37:20;;;;;;;40.42;23.88;;;5.90;99.90;;;;;;4999257;28;20149;-79
2021/10/29 17:39:46;;;;;;;45.20;25.65;;;6.00;99.90;;;;;;4998543;28;20026;-78
2021/10/29 17:42:12;;;;;;;41.53;26.52;;;6.00;99.90;;;;;;4999558;28;20047;-80
2021/10/29 17:44:42;;;;;;;69.53;37.55;;;6.00;99.90;;;;;;4998307;28;20108;-80